createdAt,value
2018-01-15T00:00:17.722Z,6.70
2018-01-15T00:02:44.076Z,7.07
2018-01-15T00:05:10.409Z,9.47
2018-01-15T00:07:36.703Z,8.40
2018-01-15T00:10:03.064Z,7.80
2018-01-15T00:12:29.364Z,8.73
2018-01-15T00:14:56.358Z,9.47
2018-01-15T00:17:22.668Z,8.47
2018-01-15T00:19:48.973Z,9.60
2018-01-15T00:22:15.976Z,7.53
2018-01-15T00:24:42.307Z,7.87
2018-01-15T00:27:08.560Z,8.23
2018-01-15T00:29:34.836Z,9.53
2018-01-15T00:32:01.184Z,8.23
2018-01-15T00:34:27.509Z,8.10
2018-01-15T00:36:53.766Z,8.23
2018-01-15T00:39:20.029Z,9.70
2018-01-15T00:41:46.343Z,9.07
2018-01-15T00:44:12.639Z,8.17
2018-01-15T00:46:38.988Z,9.27
2018-01-15T00:49:05.263Z,7.80
2018-01-15T00:51:32.295Z,9.03
2018-01-15T00:53:58.609Z,8.10
2018-01-15T00:56:24.891Z,8.07
2018-01-15T00:58:51.175Z,9.57
2018-01-15T01:01:18.219Z,9.10
2018-01-15T01:03:44.509Z,8.63
2018-01-15T01:06:10.799Z,9.90
2018-01-15T01:08:37.879Z,9.93
2018-01-15T01:11:04.142Z,8.90
2018-01-15T01:13:30.402Z,9.00
2018-01-15T01:15:57.432Z,8.27
2018-01-15T01:18:23.768Z,8.90
2018-01-15T01:20:50.068Z,8.20
2018-01-15T01:23:16.349Z,7.80
2018-01-15T01:25:43.436Z,10.47
2018-01-15T01:28:09.736Z,9.60
2018-01-15T01:30:36.754Z,9.33
2018-01-15T01:33:03.064Z,9.30
2018-01-15T01:35:29.469Z,9.33
2018-01-15T01:37:55.729Z,9.37
2018-01-15T01:40:22.815Z,8.93
2018-01-15T01:42:50.410Z,9.60
2018-01-15T01:45:16.681Z,9.10
2018-01-15T01:47:42.982Z,9.57
2018-01-15T01:50:09.275Z,9.97
2018-01-15T01:52:35.579Z,9.93
2018-01-15T01:55:01.879Z,9.20
2018-01-15T01:57:28.188Z,9.17
2018-01-15T01:59:58.212Z,9.10
2018-01-15T02:05:08.221Z,8.70
2018-01-15T02:10:12.076Z,9.10
2018-01-15T02:12:38.410Z,10.73
2018-01-15T02:15:05.399Z,9.10
2018-01-15T02:17:32.591Z,10.53
2018-01-15T02:19:59.695Z,8.67
2018-01-15T02:22:26.809Z,9.60
2018-01-15T02:24:53.791Z,9.90
2018-01-15T02:27:20.170Z,9.20
2018-01-15T02:29:47.263Z,10.57
2018-01-15T02:32:13.558Z,9.60
2018-01-15T02:34:40.608Z,9.33
2018-01-15T02:37:07.579Z,9.33
2018-01-15T02:39:33.922Z,10.57
2018-01-15T02:42:00.151Z,10.00
2018-01-15T02:44:26.461Z,10.60
2018-01-15T02:46:52.699Z,10.20
2018-01-15T02:49:19.073Z,9.70
2018-01-15T02:51:45.310Z,9.63
2018-01-15T02:54:11.637Z,10.40
2018-01-15T02:56:37.874Z,8.83
2018-01-15T02:59:04.164Z,9.60
2018-01-15T03:01:30.417Z,9.63
2018-01-15T03:03:56.728Z,9.50
2018-01-15T03:06:23.003Z,10.07
2018-01-15T03:08:50.049Z,10.10
2018-01-15T03:11:16.327Z,10.33
2018-01-15T03:13:42.617Z,8.90
2018-01-15T03:16:09.695Z,9.97
2018-01-15T03:18:35.957Z,9.47
2018-01-15T03:21:02.289Z,10.20
2018-01-15T03:23:28.541Z,9.00
2018-01-15T03:25:54.818Z,9.80
2018-01-15T03:28:21.158Z,9.97
2018-01-15T03:30:47.376Z,9.80
2018-01-15T03:33:13.667Z,9.10
2018-01-15T03:35:39.937Z,9.97
2018-01-15T03:38:06.248Z,9.63
2018-01-15T03:40:32.534Z,9.70
2018-01-15T03:42:58.872Z,9.50
2018-01-15T03:45:25.184Z,9.00
2018-01-15T03:47:51.476Z,9.97
2018-01-15T03:50:17.778Z,10.13
2018-01-15T03:52:44.076Z,10.30
2018-01-15T03:55:10.540Z,10.17
2018-01-15T03:57:36.766Z,9.73
2018-01-15T04:00:04.557Z,9.27
2018-01-15T04:02:32.394Z,11.00
2018-01-15T04:04:58.647Z,10.27
2018-01-15T04:07:25.683Z,9.80
2018-01-15T04:09:52.111Z,9.50
2018-01-15T04:12:18.458Z,9.90
2018-01-15T04:14:45.489Z,9.20
2018-01-15T04:17:11.717Z,9.83
2018-01-15T04:19:38.013Z,10.40
2018-01-15T04:22:04.379Z,10.90
2018-01-15T04:24:30.603Z,9.43
2018-01-15T04:26:56.847Z,10.17
2018-01-15T04:29:23.132Z,10.80
2018-01-15T04:31:49.743Z,11.70
2018-01-15T04:34:16.178Z,10.50
2018-01-15T04:36:42.427Z,10.37
2018-01-15T04:39:08.730Z,9.90
2018-01-15T04:41:35.674Z,9.80
2018-01-15T04:44:02.865Z,11.23
2018-01-15T04:46:29.132Z,10.47
2018-01-15T04:48:55.362Z,11.17
2018-01-15T04:51:21.750Z,10.90
2018-01-15T04:53:48.011Z,9.97
2018-01-15T04:56:14.264Z,10.57
2018-01-15T04:58:41.258Z,10.90
2018-01-15T05:01:07.514Z,10.77
2018-01-15T05:03:33.766Z,11.07
2018-01-15T05:06:00.799Z,10.20
2018-01-15T05:08:27.047Z,11.53
2018-01-15T05:10:54.063Z,11.40
2018-01-15T05:13:20.313Z,10.30
2018-01-15T05:15:46.578Z,12.27
2018-01-15T05:18:12.899Z,12.53
2018-01-15T05:20:39.147Z,12.20
2018-01-15T05:23:05.415Z,12.70
2018-01-15T05:25:31.697Z,11.60
2018-01-15T05:27:59.001Z,10.93
2018-01-15T05:30:25.249Z,13.60
2018-01-15T05:32:52.288Z,14.23
2018-01-15T05:35:18.555Z,14.10
2018-01-15T05:37:44.929Z,14.07
2018-01-15T05:40:11.219Z,13.10
2018-01-15T05:42:37.550Z,12.57
2018-01-15T05:45:03.848Z,12.93
2018-01-15T05:47:30.122Z,13.30
2018-01-15T05:49:56.446Z,13.83
2018-01-15T05:52:22.724Z,13.07
2018-01-15T05:54:48.973Z,13.90
2018-01-15T05:57:16.102Z,12.13
2018-01-15T05:59:42.324Z,13.10
2018-01-15T06:02:08.572Z,12.20
2018-01-15T06:04:34.810Z,13.43
2018-01-15T06:07:01.833Z,14.20
2018-01-15T06:09:28.171Z,14.97
2018-01-15T06:11:54.480Z,15.73
2018-01-15T06:14:20.710Z,13.77
2018-01-15T06:16:46.976Z,14.47
2018-01-15T06:19:14.007Z,13.93
2018-01-15T06:21:40.321Z,11.90
2018-01-15T06:24:06.587Z,12.80
2018-01-15T06:26:33.611Z,13.53
2018-01-15T06:28:59.955Z,12.80
2018-01-15T06:31:26.287Z,14.60
2018-01-15T06:33:52.604Z,13.70
2018-01-15T06:36:18.864Z,14.40
2018-01-15T06:38:45.904Z,14.57
2018-01-15T06:41:12.923Z,14.30
2018-01-15T06:43:39.217Z,14.80
2018-01-15T06:46:05.490Z,15.10
2018-01-15T06:48:31.804Z,12.37
2018-01-15T06:50:58.129Z,13.03
2018-01-15T06:53:24.408Z,14.17
2018-01-15T06:55:51.399Z,14.27
2018-01-15T06:58:17.651Z,14.20
2018-01-15T07:00:43.961Z,13.40
2018-01-15T07:03:10.289Z,14.13
2018-01-15T07:05:36.532Z,14.17
2018-01-15T07:08:02.785Z,14.93
2018-01-15T07:10:29.039Z,13.80
2018-01-15T07:12:55.852Z,12.70
2018-01-15T07:15:22.119Z,14.87
2018-01-15T07:17:48.335Z,13.80
2018-01-15T07:20:15.352Z,14.93
2018-01-15T07:22:41.584Z,13.90
2018-01-15T07:25:07.859Z,13.13
2018-01-15T07:27:34.112Z,12.30
2018-01-15T07:30:00.404Z,14.20
2018-01-15T07:32:26.756Z,13.57
2018-01-15T07:34:53.015Z,12.40
2018-01-15T07:37:19.292Z,13.83
2018-01-15T07:39:46.286Z,13.57
2018-01-15T07:42:12.527Z,12.80
2018-01-15T07:44:38.772Z,13.50
2018-01-15T07:47:05.010Z,12.23
2018-01-15T07:49:31.368Z,16.03
2018-01-15T07:51:58.389Z,13.97
2018-01-15T07:54:24.989Z,13.33
2018-01-15T07:56:51.215Z,13.73
2018-01-15T07:59:17.509Z,11.73
2018-01-15T08:01:44.492Z,13.30
2018-01-15T08:04:10.763Z,13.17
2018-01-15T08:06:37.013Z,13.13
2018-01-15T08:09:03.984Z,12.27
2018-01-15T08:11:30.262Z,11.97
2018-01-15T08:13:56.524Z,12.60
2018-01-15T08:16:23.516Z,12.10
2018-01-15T08:18:49.818Z,11.93
2018-01-15T08:21:16.118Z,12.40
2018-01-15T08:23:43.347Z,12.47
2018-01-15T08:26:10.553Z,12.60
2018-01-15T08:28:36.817Z,11.93
2018-01-15T08:31:03.040Z,13.30
2018-01-15T08:33:29.358Z,11.90
2018-01-15T08:35:56.425Z,11.80
2018-01-15T08:38:22.675Z,13.33
2018-01-15T08:40:48.935Z,12.07
2018-01-15T08:43:15.170Z,12.03
2018-01-15T08:45:41.449Z,11.10
2018-01-15T08:48:07.691Z,13.20
2018-01-15T08:50:33.975Z,12.40
2018-01-15T08:53:00.215Z,13.83
2018-01-15T08:55:26.526Z,13.07
2018-01-15T08:57:52.831Z,13.27
2018-01-15T09:00:19.855Z,12.60
2018-01-15T09:02:46.108Z,12.67
2018-01-15T09:05:13.118Z,12.23
2018-01-15T09:07:39.342Z,12.20
2018-01-15T09:10:05.674Z,12.20
2018-01-15T09:12:31.969Z,10.33
2018-01-15T09:14:58.235Z,13.40
2018-01-15T09:17:24.510Z,10.20
2018-01-15T09:19:51.500Z,10.30
2018-01-15T09:22:17.784Z,11.30
2018-01-15T09:24:44.738Z,11.07
2018-01-15T09:27:11.754Z,10.03
2018-01-15T09:29:38.938Z,9.37
2018-01-15T09:32:05.943Z,9.77
2018-01-15T09:34:32.267Z,10.43
2018-01-15T09:36:58.599Z,9.20
2018-01-15T09:39:24.859Z,8.73
2018-01-15T09:41:51.871Z,10.00
2018-01-15T09:44:18.205Z,9.57
2018-01-15T09:46:44.468Z,8.50
2018-01-15T09:49:11.526Z,9.73
2018-01-15T09:51:38.577Z,9.00
2018-01-15T09:54:05.587Z,9.37
2018-01-15T09:56:31.819Z,8.53
2018-01-15T09:58:58.095Z,8.50
2018-01-15T10:01:24.331Z,8.90
2018-01-15T10:03:51.612Z,8.30
2018-01-15T10:06:17.810Z,9.87
2018-01-15T10:08:44.121Z,8.73
2018-01-15T10:11:11.115Z,9.53
2018-01-15T10:13:37.376Z,9.30
2018-01-15T10:16:03.692Z,9.67
2018-01-15T10:18:29.938Z,9.50
2018-01-15T10:20:56.967Z,10.80
2018-01-15T10:23:23.196Z,9.20
2018-01-15T10:25:49.472Z,8.83
2018-01-15T10:28:15.684Z,9.77
2018-01-15T10:30:42.663Z,9.47
2018-01-15T10:33:08.960Z,9.80
2018-01-15T10:35:35.232Z,9.13
2018-01-15T10:38:01.504Z,9.90
2018-01-15T10:40:27.736Z,9.20
2018-01-15T10:42:54.009Z,9.00
2018-01-15T10:45:20.305Z,8.50
2018-01-15T10:47:47.312Z,8.87
2018-01-15T10:50:13.571Z,9.10
2018-01-15T10:52:39.834Z,8.60
2018-01-15T10:55:06.061Z,10.20
2018-01-15T10:57:32.378Z,8.50
2018-01-15T10:59:59.371Z,10.43
2018-01-15T11:02:25.635Z,8.80
2018-01-15T11:04:51.905Z,9.60
2018-01-15T11:07:18.211Z,7.40
2018-01-15T11:09:45.203Z,8.90
2018-01-15T11:12:11.409Z,8.00
2018-01-15T11:14:37.672Z,7.37
2018-01-15T11:17:04.014Z,8.93
2018-01-15T11:19:30.298Z,9.10
2018-01-15T11:21:56.589Z,8.50
2018-01-15T11:24:22.837Z,8.40
2018-01-15T11:26:49.866Z,9.67
2018-01-15T11:29:16.162Z,8.30
2018-01-15T11:31:42.419Z,8.10
2018-01-15T11:34:08.687Z,9.63
2018-01-15T11:36:35.720Z,9.00
2018-01-15T11:41:34.829Z,8.70
2018-01-15T11:44:01.071Z,9.10
2018-01-15T11:46:28.106Z,7.97
2018-01-15T11:48:54.331Z,7.83
2018-01-15T11:51:21.303Z,7.90
2018-01-15T11:53:47.580Z,9.37
2018-01-15T11:56:13.833Z,9.00
2018-01-15T11:58:40.824Z,8.47
2018-01-15T12:01:07.183Z,9.00
2018-01-15T12:03:33.450Z,8.53
2018-01-15T12:05:59.676Z,8.70
2018-01-15T12:13:30.736Z,9.60
2018-01-15T12:15:57.003Z,8.60
2018-01-15T12:18:24.036Z,9.30
2018-01-15T12:20:58.108Z,9.00
2018-01-15T12:23:24.366Z,8.40
2018-01-15T12:28:23.346Z,9.33
2018-01-15T12:30:49.670Z,9.47
2018-01-15T12:33:15.942Z,9.97
2018-01-15T12:35:43.001Z,9.97
2018-01-15T12:40:42.114Z,10.30
2018-01-15T12:43:09.142Z,10.70
2018-01-15T12:45:35.396Z,9.83
2018-01-15T12:48:02.445Z,10.80
2018-01-15T12:50:29.409Z,10.27
2018-01-15T12:52:55.706Z,10.47
2018-01-15T13:02:58.972Z,9.77
2018-01-15T13:08:35.759Z,11.77
2018-01-15T13:11:02.788Z,11.17
2018-01-15T13:26:09.851Z,11.93
2018-01-15T13:38:44.348Z,11.33
2018-01-15T13:48:47.092Z,11.80
2018-01-15T13:51:14.181Z,12.10
2018-01-15T13:56:19.537Z,12.20
2018-01-15T14:24:07.432Z,12.73
2018-01-15T14:26:33.696Z,11.67
2018-01-15T14:29:00.169Z,12.53
2018-01-15T14:41:34.368Z,11.43
2018-01-15T14:46:33.343Z,10.97
2018-01-15T14:48:59.601Z,12.70
2018-01-15T14:51:26.624Z,11.10
2018-01-15T14:58:57.739Z,11.70
2018-01-15T15:01:24.268Z,11.93
2018-01-15T15:06:23.510Z,12.00
2018-01-15T15:08:49.940Z,12.93
2018-01-15T15:13:48.633Z,14.03
2018-01-15T15:18:47.843Z,12.07
2018-01-15T15:21:15.081Z,14.97
2018-01-15T15:23:42.119Z,14.37
2018-01-15T15:26:08.517Z,13.80
2018-01-15T15:28:34.813Z,14.23
2018-01-15T15:31:01.102Z,14.90
2018-01-15T15:33:27.454Z,14.90
2018-01-15T15:38:27.300Z,13.20
2018-01-15T15:48:30.343Z,16.40
2018-01-15T15:53:29.399Z,15.23
2018-01-15T15:58:27.900Z,15.50
2018-01-15T16:03:26.226Z,14.63
2018-01-15T16:08:24.519Z,14.70
2018-01-15T16:10:50.881Z,15.77
2018-01-15T16:15:49.316Z,16.67
2018-01-15T16:18:15.619Z,15.40
2018-01-15T16:35:55.640Z,18.20
2018-01-15T16:38:22.698Z,15.70
2018-01-15T16:40:50.636Z,15.10
2018-01-15T16:43:29.907Z,14.27
2018-01-15T16:48:29.546Z,14.50
2018-01-15T16:53:29.495Z,13.23
2018-01-15T17:03:44.758Z,15.27
2018-01-15T17:06:12.294Z,14.50
2018-01-15T17:21:37.449Z,15.67
2018-01-15T17:29:08.712Z,15.40
2018-01-15T17:34:08.491Z,15.80
2018-01-15T17:36:35.380Z,15.43
2018-01-15T17:46:49.196Z,16.20
2018-01-15T17:59:09.257Z,13.93
2018-01-15T18:06:41.872Z,14.03
2018-01-15T18:09:09.205Z,16.40
2018-01-15T18:11:37.562Z,16.53
2018-01-15T18:16:37.531Z,15.30
2018-01-15T18:19:05.999Z,14.70
2018-01-15T18:42:00.440Z,14.33
2018-01-15T18:47:15.609Z,16.90
2018-01-15T18:49:42.717Z,14.93
2018-01-15T18:54:44.227Z,14.20
2018-01-15T18:57:16.555Z,15.10
2018-01-15T19:04:56.332Z,15.73
2018-01-15T19:09:55.548Z,16.10
2018-01-15T19:20:00.467Z,14.70
2018-01-15T19:22:27.639Z,15.90
2018-01-15T19:24:55.397Z,15.37
2018-01-15T19:29:56.598Z,14.63
2018-01-15T19:32:23.388Z,15.93
2018-01-15T19:40:04.929Z,16.33
2018-01-15T19:42:33.880Z,15.23
2018-01-15T19:50:29.044Z,15.53
2018-01-15T19:53:04.158Z,15.50
2018-01-15T19:55:37.377Z,13.53
2018-01-15T20:11:22.431Z,14.53
2018-01-15T20:13:49.791Z,14.83
2018-01-15T20:18:50.475Z,14.33
2018-01-15T20:21:17.988Z,13.93
2018-01-15T20:26:28.200Z,13.77
2018-01-15T20:31:31.556Z,13.10
2018-01-15T20:33:59.216Z,11.97
2018-01-15T20:36:26.869Z,12.63
2018-01-15T20:38:54.767Z,13.07
2018-01-15T20:41:21.820Z,12.17
2018-01-15T20:54:03.169Z,14.87
2018-01-15T20:56:31.029Z,14.20
2018-01-15T20:58:58.613Z,14.17
2018-01-15T21:04:07.925Z,12.87
2018-01-15T21:11:41.270Z,13.00
2018-01-15T21:14:09.236Z,13.67
2018-01-15T21:26:48.716Z,13.03
2018-01-15T21:29:16.814Z,13.30
2018-01-15T21:34:19.818Z,11.50
2018-01-15T21:36:47.316Z,11.87
2018-01-15T21:39:14.760Z,13.47
2018-01-15T21:46:47.761Z,13.43
2018-01-15T21:49:15.375Z,12.30
2018-01-15T21:51:44.413Z,12.07
2018-01-15T21:56:47.208Z,14.47
2018-01-15T22:04:20.272Z,14.63
2018-01-15T22:06:47.459Z,11.03
2018-01-15T22:09:16.414Z,12.67
2018-01-15T22:27:05.097Z,12.30
2018-01-15T22:29:32.874Z,13.77
2018-01-15T22:34:35.392Z,10.37
2018-01-15T22:37:03.252Z,13.30
2018-01-15T22:49:52.647Z,11.77
2018-01-15T22:57:25.883Z,12.20
2018-01-15T22:59:54.600Z,10.57
2018-01-15T23:02:21.536Z,10.90
2018-01-15T23:09:55.384Z,10.90
2018-01-15T23:20:02.622Z,10.33
2018-01-15T23:25:01.743Z,10.00
2018-01-15T23:27:32.756Z,9.60
2018-01-15T23:29:59.952Z,10.50
2018-01-15T23:34:58.142Z,9.10
2018-01-15T23:39:56.414Z,10.27
2018-01-15T23:47:28.204Z,8.33
2018-01-15T23:49:57.639Z,9.33
2018-01-15T23:52:36.030Z,10.23
2018-01-15T23:57:36.163Z,9.60
